createdAt,value
2018-09-15T00:02:29.420Z,21.08
2018-09-15T00:04:58.801Z,21.06
2018-09-15T00:07:28.201Z,21.06
2018-09-15T00:09:57.880Z,21.04
2018-09-15T00:12:27.212Z,21.03
2018-09-15T00:14:56.390Z,21.01
2018-09-15T00:17:25.783Z,20.98
2018-09-15T00:19:55.183Z,20.94
2018-09-15T00:22:24.120Z,20.93
2018-09-15T00:24:53.428Z,20.92
2018-09-15T00:27:22.826Z,20.91
2018-09-15T00:29:51.900Z,20.89
2018-09-15T00:32:20.915Z,20.87
2018-09-15T00:34:50.435Z,20.89
2018-09-15T00:37:19.516Z,20.90
2018-09-15T00:39:48.953Z,20.91
2018-09-15T00:42:18.116Z,20.90
2018-09-15T00:44:47.235Z,20.89
2018-09-15T00:47:16.677Z,20.87
2018-09-15T00:49:46.133Z,20.86
2018-09-15T00:52:15.107Z,20.84
2018-09-15T00:54:44.516Z,20.82
2018-09-15T00:57:13.724Z,20.84
2018-09-15T00:59:43.169Z,20.85
2018-09-15T01:02:12.380Z,20.82
2018-09-15T01:04:41.683Z,20.81
2018-09-15T01:07:17.201Z,20.80
2018-09-15T01:09:46.419Z,20.81
2018-09-15T01:12:15.735Z,20.80
2018-09-15T01:14:45.208Z,20.80
2018-09-15T01:17:14.374Z,20.81
2018-09-15T01:19:43.705Z,20.82
2018-09-15T01:22:12.705Z,20.82
2018-09-15T01:24:42.453Z,20.81
2018-09-15T01:27:11.501Z,20.80
2018-09-15T01:29:41.133Z,20.78
2018-09-15T01:32:10.395Z,20.76
2018-09-15T01:34:39.462Z,20.73
2018-09-15T01:37:08.846Z,20.69
2018-09-15T01:39:38.059Z,20.64
2018-09-15T01:42:08.916Z,20.59
2018-09-15T01:44:38.154Z,20.55
2018-09-15T01:47:07.244Z,20.52
2018-09-15T01:49:36.422Z,20.47
2018-09-15T01:52:05.829Z,20.42
2018-09-15T01:54:35.344Z,20.38
2018-09-15T01:57:04.457Z,20.33
2018-09-15T01:59:33.583Z,20.27
2018-09-15T02:02:02.775Z,20.24
2018-09-15T02:04:31.815Z,20.18
2018-09-15T02:07:01.070Z,20.13
2018-09-15T02:09:30.142Z,20.10
2018-09-15T02:12:02.244Z,20.08
2018-09-15T02:14:31.302Z,20.05
2018-09-15T02:17:00.239Z,20.02
2018-09-15T02:19:29.347Z,20.00
2018-09-15T02:21:58.705Z,19.98
2018-09-15T02:24:27.963Z,19.96
2018-09-15T02:26:57.145Z,19.96
2018-09-15T02:29:26.852Z,19.95
2018-09-15T02:31:56.162Z,19.96
2018-09-15T02:34:25.170Z,20.01
2018-09-15T02:36:55.115Z,20.05
2018-09-15T02:39:24.291Z,20.09
2018-09-15T02:41:53.495Z,20.09
2018-09-15T02:44:22.706Z,20.10
2018-09-15T02:46:52.054Z,20.10
2018-09-15T02:49:21.434Z,20.12
2018-09-15T02:51:50.809Z,20.14
2018-09-15T02:54:19.863Z,20.14
2018-09-15T02:56:48.914Z,20.16
2018-09-15T02:59:18.085Z,20.17
2018-09-15T03:01:47.309Z,20.21
2018-09-15T03:04:16.485Z,20.21
2018-09-15T03:06:45.669Z,20.16
2018-09-15T03:09:14.762Z,20.08
2018-09-15T03:11:44.298Z,20.00
2018-09-15T03:14:13.899Z,19.95
2018-09-15T03:16:43.098Z,19.95
2018-09-15T03:19:12.208Z,19.95
2018-09-15T03:21:41.908Z,19.95
2018-09-15T03:24:11.132Z,19.94
2018-09-15T03:26:40.307Z,19.93
2018-09-15T03:29:09.291Z,19.93
2018-09-15T03:31:38.525Z,19.92
2018-09-15T03:34:07.884Z,19.87
2018-09-15T03:36:37.134Z,19.82
2018-09-15T03:39:08.626Z,19.77
2018-09-15T03:41:37.709Z,19.74
2018-09-15T03:44:07.128Z,19.71
2018-09-15T03:46:36.166Z,19.70
2018-09-15T03:49:05.362Z,19.68
2018-09-15T03:51:34.461Z,19.66
2018-09-15T03:54:03.603Z,19.65
2018-09-15T03:56:33.089Z,19.66
2018-09-15T03:59:02.215Z,19.64
2018-09-15T04:01:31.346Z,19.65
2018-09-15T04:04:00.453Z,19.68
2018-09-15T04:06:29.744Z,19.71
2018-09-15T04:08:58.755Z,19.73
2018-09-15T04:11:28.310Z,19.75
2018-09-15T04:13:57.973Z,19.67
2018-09-15T04:16:27.369Z,19.78
2018-09-15T04:18:56.404Z,19.82
2018-09-15T04:21:25.453Z,19.85
2018-09-15T04:23:54.502Z,19.90
2018-09-15T04:26:23.702Z,19.91
2018-09-15T04:28:52.644Z,19.91
2018-09-15T04:31:21.894Z,19.92
2018-09-15T04:33:51.709Z,19.88
2018-09-15T04:36:21.264Z,19.89
2018-09-15T04:38:50.338Z,19.92
2018-09-15T04:41:19.461Z,19.93
2018-09-15T04:43:49.062Z,19.93
2018-09-15T04:46:18.262Z,19.93
2018-09-15T04:48:47.167Z,19.93
2018-09-15T04:51:16.711Z,19.95
2018-09-15T04:53:45.782Z,19.99
2018-09-15T04:56:16.052Z,20.03
2018-09-15T04:58:45.104Z,20.07
2018-09-15T05:01:14.468Z,20.08
2018-09-15T05:03:43.939Z,20.07
2018-09-15T05:06:13.104Z,20.04
2018-09-15T05:08:42.234Z,19.97
2018-09-15T05:11:11.520Z,19.93
2018-09-15T05:13:40.881Z,19.90
2018-09-15T05:16:10.297Z,19.87
2018-09-15T05:18:39.890Z,19.83
2018-09-15T05:21:09.903Z,19.79
2018-09-15T05:23:40.121Z,19.76
2018-09-15T05:26:09.207Z,19.71
2018-09-15T05:28:38.419Z,19.61
2018-09-15T05:31:07.512Z,19.51
2018-09-15T05:33:36.581Z,19.43
2018-09-15T05:36:05.711Z,19.39
2018-09-15T05:38:34.685Z,19.41
2018-09-15T05:41:03.790Z,19.46
2018-09-15T05:43:32.756Z,19.51
2018-09-15T05:46:01.725Z,19.51
2018-09-15T05:48:30.917Z,19.47
2018-09-15T05:51:00.463Z,19.46
2018-09-15T05:53:29.599Z,19.46
2018-09-15T05:55:58.633Z,19.48
2018-09-15T05:58:27.898Z,19.49
2018-09-15T06:00:57.533Z,19.47
2018-09-15T06:03:27.400Z,19.46
2018-09-15T06:05:56.553Z,19.46
2018-09-15T06:08:25.797Z,19.46
2018-09-15T06:10:54.871Z,19.48
2018-09-15T06:13:24.198Z,19.51
2018-09-15T06:15:53.258Z,19.52
2018-09-15T06:18:22.496Z,19.51
2018-09-15T06:20:51.628Z,19.53
2018-09-15T06:23:20.883Z,19.57
2018-09-15T06:25:50.401Z,19.60
2018-09-15T06:28:19.479Z,19.64
2018-09-15T06:30:48.667Z,19.70
2018-09-15T06:33:18.013Z,19.75
2018-09-15T06:35:47.003Z,19.78
2018-09-15T06:38:16.056Z,19.81
2018-09-15T06:40:45.067Z,19.87
2018-09-15T06:43:14.195Z,19.92
2018-09-15T06:45:44.207Z,20.00
2018-09-15T06:48:14.306Z,20.10
2018-09-15T06:50:43.989Z,20.18
2018-09-15T06:53:13.550Z,20.25
2018-09-15T06:55:43.818Z,20.27
2018-09-15T06:58:13.306Z,20.27
2018-09-15T07:00:43.378Z,20.29
2018-09-15T07:03:13.083Z,20.31
2018-09-15T07:05:42.303Z,20.36
2018-09-15T07:08:11.374Z,20.38
2018-09-15T07:10:40.653Z,20.40
2018-09-15T07:13:09.925Z,20.44
2018-09-15T07:15:38.963Z,20.51
2018-09-15T07:18:08.514Z,20.54
2018-09-15T07:20:37.519Z,20.59
2018-09-15T07:23:06.847Z,20.65
2018-09-15T07:25:35.960Z,20.70
2018-09-15T07:28:05.266Z,20.70
2018-09-15T07:30:34.233Z,20.71
2018-09-15T07:33:03.411Z,20.73
2018-09-15T07:35:32.554Z,20.77
2018-09-15T07:38:01.728Z,20.81
2018-09-15T07:40:31.188Z,20.84
2018-09-15T07:43:00.908Z,20.90
2018-09-15T07:45:30.163Z,20.94
2018-09-15T07:47:59.165Z,21.01
2018-09-15T07:50:28.283Z,21.06
2018-09-15T07:52:57.488Z,21.13
2018-09-15T07:55:26.540Z,21.18
2018-09-15T07:57:55.817Z,21.22
2018-09-15T08:00:25.770Z,21.26
2018-09-15T08:02:55.741Z,21.32
2018-09-15T08:05:24.870Z,21.36
2018-09-15T08:07:54.032Z,21.41
2018-09-15T08:10:23.184Z,21.46
2018-09-15T08:12:52.343Z,21.52
2018-09-15T08:15:21.507Z,21.58
2018-09-15T08:17:50.542Z,21.67
2018-09-15T08:20:19.563Z,21.73
2018-09-15T08:22:48.823Z,21.80
2018-09-15T08:25:17.908Z,21.86
2018-09-15T08:27:46.843Z,21.91
2018-09-15T08:30:16.194Z,21.95
2018-09-15T08:32:45.709Z,22.01
2018-09-15T08:35:15.518Z,22.08
2018-09-15T08:37:44.618Z,22.16
2018-09-15T08:40:13.992Z,22.24
2018-09-15T08:42:49.360Z,22.28
2018-09-15T08:45:19.644Z,22.29
2018-09-15T08:47:50.098Z,22.34
2018-09-15T08:50:19.885Z,22.39
2018-09-15T08:52:48.981Z,22.43
2018-09-15T08:55:17.984Z,22.46
2018-09-15T08:57:46.966Z,22.47
2018-09-15T09:00:16.118Z,22.53
2018-09-15T09:02:45.965Z,22.60
2018-09-15T09:05:15.139Z,22.66
2018-09-15T09:07:44.116Z,22.73
2018-09-15T09:10:13.105Z,22.79
2018-09-15T09:12:42.483Z,22.83
2018-09-15T09:15:11.608Z,22.87
2018-09-15T09:17:40.857Z,22.93
2018-09-15T09:20:10.161Z,22.96
2018-09-15T09:22:39.506Z,22.98
2018-09-15T09:25:08.894Z,22.99
2018-09-15T09:27:37.962Z,23.02
2018-09-15T09:30:07.238Z,23.07
2018-09-15T09:32:36.407Z,23.11
2018-09-15T09:35:05.540Z,23.14
2018-09-15T09:37:34.738Z,23.17
2018-09-15T09:40:04.130Z,23.20
2018-09-15T09:42:33.381Z,23.19
2018-09-15T09:45:02.611Z,23.15
2018-09-15T09:47:31.788Z,23.11
2018-09-15T09:50:00.971Z,23.08
2018-09-15T09:52:30.895Z,23.04
2018-09-15T09:54:59.928Z,23.03
2018-09-15T09:57:29.229Z,23.00
2018-09-15T09:59:58.251Z,23.00
2018-09-15T10:02:27.387Z,23.00
2018-09-15T10:04:56.529Z,23.00
2018-09-15T10:07:25.791Z,22.98
2018-09-15T10:09:54.979Z,23.00
2018-09-15T10:12:24.035Z,23.02
2018-09-15T10:14:53.336Z,23.05
2018-09-15T10:17:22.535Z,23.08
2018-09-15T10:19:51.708Z,23.11
2018-09-15T10:22:20.933Z,23.14
2018-09-15T10:24:50.324Z,23.18
2018-09-15T10:27:19.819Z,23.23
2018-09-15T10:29:48.981Z,23.28
2018-09-15T10:32:18.210Z,23.35
2018-09-15T10:34:47.920Z,23.40
2018-09-15T10:37:17.157Z,23.43
2018-09-15T10:39:46.574Z,23.47
2018-09-15T10:42:15.650Z,23.53
2018-09-15T10:44:45.179Z,23.57
2018-09-15T10:47:14.717Z,23.59
2018-09-15T10:49:44.644Z,23.60
2018-09-15T10:52:13.569Z,23.60
2018-09-15T10:54:42.788Z,23.65
2018-09-15T10:57:11.959Z,23.68
2018-09-15T10:59:41.153Z,23.72
2018-09-15T11:02:14.910Z,23.73
2018-09-15T11:04:45.760Z,23.75
2018-09-15T11:07:15.616Z,23.76
2018-09-15T11:09:45.193Z,23.75
2018-09-15T11:12:14.333Z,23.76
2018-09-15T11:14:43.621Z,23.74
2018-09-15T11:17:12.615Z,23.75
2018-09-15T11:19:41.908Z,23.81
2018-09-15T11:22:10.803Z,23.82
2018-09-15T11:24:39.932Z,23.86
2018-09-15T11:27:09.048Z,23.94
2018-09-15T11:29:38.431Z,24.01
2018-09-15T11:32:07.945Z,24.10
2018-09-15T11:34:37.506Z,24.13
2018-09-15T11:37:06.812Z,24.19
2018-09-15T11:39:36.324Z,24.25
2018-09-15T11:42:05.422Z,24.33
2018-09-15T11:44:34.589Z,24.40
2018-09-15T11:47:04.005Z,24.45
2018-09-15T11:49:32.998Z,24.50
2018-09-15T11:52:02.145Z,24.54
2018-09-15T11:54:31.239Z,24.58
2018-09-15T11:57:00.209Z,24.61
2018-09-15T11:59:29.296Z,24.62
2018-09-15T12:01:58.568Z,24.64
2018-09-15T12:04:28.278Z,24.66
2018-09-15T12:06:57.454Z,24.66
2018-09-15T12:09:26.597Z,24.67
2018-09-15T12:11:55.577Z,24.69
2018-09-15T12:14:24.688Z,24.69
2018-09-15T12:16:53.907Z,24.68
2018-09-15T12:19:23.242Z,24.70
2018-09-15T12:21:52.621Z,24.74
2018-09-15T12:24:22.632Z,24.80
2018-09-15T12:26:51.700Z,24.86
2018-09-15T12:29:20.766Z,24.89
2018-09-15T12:31:49.899Z,24.93
2018-09-15T12:34:19.096Z,24.96
2018-09-15T12:36:48.082Z,24.99
2018-09-15T12:39:18.021Z,25.00
2018-09-15T12:41:47.240Z,25.03
2018-09-15T12:44:16.340Z,25.05
2018-09-15T12:46:45.633Z,25.05
2018-09-15T12:49:14.696Z,25.06
2018-09-15T12:51:44.269Z,25.05
2018-09-15T12:54:13.280Z,25.04
2018-09-15T12:56:42.520Z,25.02
2018-09-15T12:59:12.060Z,25.03
2018-09-15T13:01:41.283Z,25.00
2018-09-15T13:04:10.762Z,24.99
2018-09-15T13:06:39.875Z,24.97
2018-09-15T13:09:11.714Z,25.01
2018-09-15T13:11:41.536Z,25.04
2018-09-15T13:14:10.669Z,25.05
2018-09-15T13:16:39.589Z,25.10
2018-09-15T13:19:08.609Z,25.13
2018-09-15T13:21:37.670Z,25.13
2018-09-15T13:24:06.885Z,25.12
2018-09-15T13:26:36.048Z,25.15
2018-09-15T13:29:05.134Z,25.22
2018-09-15T13:31:35.023Z,25.25
2018-09-15T13:34:04.193Z,25.24
2018-09-15T13:36:33.567Z,25.24
2018-09-15T13:39:02.847Z,25.25
2018-09-15T13:41:32.533Z,25.25
2018-09-15T13:44:01.588Z,25.27
2018-09-15T13:46:30.654Z,25.25
2018-09-15T13:48:59.796Z,25.21
2018-09-15T13:51:28.868Z,25.14
2018-09-15T13:53:58.628Z,25.10
2018-09-15T13:56:27.822Z,25.01
2018-09-15T13:58:57.086Z,24.98
2018-09-15T14:01:26.268Z,24.97
2018-09-15T14:03:55.550Z,24.93
2018-09-15T14:06:24.624Z,24.93
2018-09-15T14:08:53.774Z,24.91
2018-09-15T14:11:23.000Z,24.86
2018-09-15T14:13:52.074Z,24.78
2018-09-15T14:16:21.544Z,24.74
2018-09-15T14:18:50.992Z,24.69
2018-09-15T14:21:20.232Z,24.66
2018-09-15T14:23:49.175Z,24.61
2018-09-15T14:26:18.577Z,24.59
2018-09-15T14:28:47.623Z,24.57
2018-09-15T14:31:16.877Z,24.55
2018-09-15T14:33:46.354Z,24.52
2018-09-15T14:36:16.025Z,24.49
2018-09-15T14:38:45.380Z,24.44
2018-09-15T14:41:14.489Z,24.41
2018-09-15T14:43:43.820Z,24.41
2018-09-15T14:46:12.709Z,24.40
2018-09-15T14:48:41.947Z,24.39
2018-09-15T14:51:11.151Z,24.39
2018-09-15T14:53:40.736Z,24.35
2018-09-15T14:56:11.001Z,24.33
2018-09-15T14:58:40.372Z,24.30
2018-09-15T15:01:10.267Z,24.28
2018-09-15T15:03:40.015Z,24.24
2018-09-15T15:06:09.291Z,24.21
2018-09-15T15:08:38.768Z,24.19
2018-09-15T15:11:08.486Z,24.16
2018-09-15T15:13:37.654Z,24.15
2018-09-15T15:16:07.094Z,24.19
2018-09-15T15:18:36.251Z,24.25
2018-09-15T15:21:05.551Z,24.34
2018-09-15T15:23:35.331Z,24.41
2018-09-15T15:26:04.578Z,24.44
2018-09-15T15:28:33.704Z,24.48
2018-09-15T15:31:03.052Z,24.53
2018-09-15T15:33:32.319Z,24.57
2018-09-15T15:36:01.553Z,24.64
2018-09-15T15:38:30.858Z,24.69
2018-09-15T15:41:00.380Z,24.72
2018-09-15T15:43:29.765Z,24.72
2018-09-15T15:45:59.480Z,24.72
2018-09-15T15:48:29.404Z,24.71
2018-09-15T15:50:58.808Z,24.68
2018-09-15T15:53:28.230Z,24.65
2018-09-15T15:55:57.771Z,24.62
2018-09-15T15:58:26.783Z,24.60
2018-09-15T16:00:55.939Z,24.57
2018-09-15T16:03:24.846Z,24.53
2018-09-15T16:05:54.526Z,24.50
2018-09-15T16:08:23.628Z,24.46
2018-09-15T16:10:53.545Z,24.43
2018-09-15T16:13:22.619Z,24.37
2018-09-15T16:15:52.386Z,24.30
2018-09-15T16:18:22.211Z,24.26
2018-09-15T16:20:51.327Z,24.22
2018-09-15T16:23:20.652Z,24.16
2018-09-15T16:25:49.804Z,24.13
2018-09-15T16:28:19.511Z,24.11
2018-09-15T16:30:49.425Z,24.09
2018-09-15T16:33:18.541Z,24.08
2018-09-15T16:35:47.984Z,24.06
2018-09-15T16:38:17.155Z,24.05
2018-09-15T16:40:46.392Z,24.03
2018-09-15T16:43:15.753Z,24.00
2018-09-15T16:45:44.836Z,23.98
2018-09-15T16:48:13.763Z,23.97
2018-09-15T16:50:42.857Z,23.95
2018-09-15T16:53:11.964Z,23.93
2018-09-15T16:55:41.908Z,23.90
2018-09-15T16:58:11.903Z,23.88
2018-09-15T17:00:41.160Z,23.88
2018-09-15T17:03:10.381Z,23.85
2018-09-15T17:05:39.442Z,23.82
2018-09-15T17:08:08.722Z,23.81
2018-09-15T17:10:37.849Z,23.81
2018-09-15T17:13:06.942Z,23.79
2018-09-15T17:15:36.287Z,23.79
2018-09-15T17:18:05.256Z,23.79
2018-09-15T17:20:34.318Z,23.78
2018-09-15T17:23:03.529Z,23.78
2018-09-15T17:25:39.316Z,23.78
2018-09-15T17:28:08.532Z,23.79
2018-09-15T17:30:37.503Z,23.78
2018-09-15T17:33:07.065Z,23.76
2018-09-15T17:35:36.118Z,23.77
2018-09-15T17:38:05.290Z,23.76
2018-09-15T17:40:35.189Z,23.73
2018-09-15T17:43:05.176Z,23.73
2018-09-15T17:45:34.734Z,23.70
2018-09-15T17:48:05.206Z,23.69
2018-09-15T17:50:34.835Z,23.67
2018-09-15T17:53:04.199Z,23.64
2018-09-15T17:55:33.661Z,23.63
2018-09-15T17:58:02.712Z,23.59
2018-09-15T18:00:32.013Z,23.56
2018-09-15T18:03:01.214Z,23.53
2018-09-15T18:05:30.583Z,23.49
2018-09-15T18:07:59.591Z,23.46
2018-09-15T18:10:28.620Z,23.45
2018-09-15T18:12:57.776Z,23.42
2018-09-15T18:15:27.708Z,23.40
2018-09-15T18:17:56.671Z,23.38
2018-09-15T18:20:26.161Z,23.38
2018-09-15T18:22:55.199Z,23.37
2018-09-15T18:25:24.199Z,23.37
2018-09-15T18:27:53.770Z,23.37
2018-09-15T18:30:22.923Z,23.36
2018-09-15T18:32:51.872Z,23.37
2018-09-15T18:35:21.172Z,23.36
2018-09-15T18:37:50.440Z,23.35
2018-09-15T18:40:19.622Z,23.35
2018-09-15T18:42:48.745Z,23.33
2018-09-15T18:45:17.960Z,23.33
2018-09-15T18:47:47.849Z,23.26
2018-09-15T18:50:16.970Z,23.31
2018-09-15T18:52:46.122Z,23.32
2018-09-15T18:55:15.458Z,23.30
2018-09-15T18:57:45.113Z,23.30
2018-09-15T19:00:14.301Z,23.29
2018-09-15T19:02:43.548Z,23.30
2018-09-15T19:05:12.687Z,23.30
2018-09-15T19:07:41.895Z,23.29
2018-09-15T19:10:11.310Z,23.29
2018-09-15T19:12:40.580Z,23.28
2018-09-15T19:15:16.078Z,23.28
2018-09-15T19:17:45.667Z,23.26
2018-09-15T19:20:15.127Z,23.26
2018-09-15T19:22:44.955Z,23.25
2018-09-15T19:25:14.037Z,23.25
2018-09-15T19:27:43.146Z,23.24
2018-09-15T19:30:12.319Z,23.23
2018-09-15T19:32:41.322Z,23.22
2018-09-15T19:35:12.049Z,23.21
2018-09-15T19:37:41.353Z,23.19
2018-09-15T19:40:10.383Z,23.15
2018-09-15T19:42:40.174Z,23.14
2018-09-15T19:45:09.277Z,23.13
2018-09-15T19:47:38.263Z,23.10
2018-09-15T19:50:07.367Z,23.08
2018-09-15T19:52:36.714Z,23.05
2018-09-15T19:55:06.162Z,23.03
2018-09-15T19:57:42.090Z,23.01
2018-09-15T20:00:11.118Z,22.97
2018-09-15T20:02:40.221Z,22.93
2018-09-15T20:05:09.432Z,22.87
2018-09-15T20:07:39.162Z,22.85
2018-09-15T20:10:08.121Z,22.81
2018-09-15T20:12:37.199Z,22.77
2018-09-15T20:15:06.648Z,22.72
2018-09-15T20:17:34.787Z,22.70
2018-09-15T20:20:02.361Z,22.67
2018-09-15T20:22:31.581Z,22.65
2018-09-15T20:25:00.546Z,22.63
2018-09-15T20:27:29.721Z,22.59
2018-09-15T20:29:58.836Z,22.53
2018-09-15T20:32:27.961Z,22.49
2018-09-15T20:34:57.373Z,22.43
2018-09-15T20:37:26.768Z,22.39
2018-09-15T20:39:55.827Z,22.35
2018-09-15T20:42:24.965Z,22.30
2018-09-15T20:44:54.102Z,22.25
2018-09-15T20:47:23.162Z,22.20
2018-09-15T20:49:52.997Z,22.16
2018-09-15T20:52:23.014Z,22.13
2018-09-15T20:54:52.437Z,22.09
2018-09-15T20:57:21.454Z,22.08
2018-09-15T20:59:50.675Z,22.06
2018-09-15T21:02:19.720Z,22.04
2018-09-15T21:04:49.005Z,22.02
2018-09-15T21:07:18.169Z,21.98
2018-09-15T21:09:47.331Z,21.94
2018-09-15T21:12:16.577Z,21.91
2018-09-15T21:14:46.006Z,21.90
2018-09-15T21:17:15.048Z,21.88
2018-09-15T21:19:44.148Z,21.87
2018-09-15T21:22:13.235Z,21.86
2018-09-15T21:24:42.263Z,21.86
2018-09-15T21:27:11.883Z,21.83
2018-09-15T21:29:40.722Z,21.83
2018-09-15T21:32:09.721Z,21.83
2018-09-15T21:34:38.997Z,21.84
2018-09-15T21:37:07.915Z,21.85
2018-09-15T21:39:37.652Z,21.87
2018-09-15T21:42:06.752Z,21.87
2018-09-15T21:44:35.891Z,21.88
2018-09-15T21:47:05.741Z,21.90
2018-09-15T21:49:35.210Z,21.90
2018-09-15T21:52:04.242Z,21.90
2018-09-15T21:54:33.257Z,21.91
2018-09-15T21:57:02.767Z,21.91
2018-09-15T21:59:31.840Z,21.93
2018-09-15T22:02:01.384Z,21.94
2018-09-15T22:04:31.002Z,21.94
2018-09-15T22:07:00.196Z,21.96
2018-09-15T22:09:29.377Z,21.97
2018-09-15T22:11:59.465Z,21.99
2018-09-15T22:14:28.400Z,21.98
2018-09-15T22:16:57.765Z,21.97
2018-09-15T22:19:26.838Z,21.97
2018-09-15T22:21:56.658Z,21.96
2018-09-15T22:24:25.798Z,21.95
2018-09-15T22:26:54.834Z,21.95
2018-09-15T22:29:23.953Z,21.96
2018-09-15T22:31:54.976Z,21.96
2018-09-15T22:34:24.288Z,21.97
2018-09-15T22:36:53.499Z,21.96
2018-09-15T22:39:22.714Z,21.98
2018-09-15T22:41:51.809Z,21.97
2018-09-15T22:44:20.901Z,21.98
2018-09-15T22:46:50.380Z,21.98
2018-09-15T22:49:19.412Z,21.95
2018-09-15T22:51:48.591Z,21.97
2018-09-15T22:54:24.357Z,21.98
2018-09-15T22:56:53.772Z,21.96
2018-09-15T22:59:23.167Z,21.98
2018-09-15T23:01:52.300Z,21.98
2018-09-15T23:04:21.395Z,21.95
2018-09-15T23:06:50.877Z,21.96
2018-09-15T23:09:20.074Z,21.94
2018-09-15T23:11:49.275Z,21.93
2018-09-15T23:14:18.376Z,21.91
2018-09-15T23:16:47.641Z,21.88
2018-09-15T23:19:16.891Z,21.86
2018-09-15T23:21:46.296Z,21.83
2018-09-15T23:24:15.478Z,21.78
2018-09-15T23:26:44.581Z,21.75
2018-09-15T23:29:13.956Z,21.73
2018-09-15T23:31:42.929Z,21.69
2018-09-15T23:34:12.091Z,21.64
2018-09-15T23:36:41.319Z,21.59
2018-09-15T23:39:10.409Z,21.57
2018-09-15T23:41:39.689Z,21.57
2018-09-15T23:44:09.251Z,21.57
2018-09-15T23:46:39.030Z,21.55
2018-09-15T23:49:08.183Z,21.53
2018-09-15T23:51:37.586Z,21.50
2018-09-15T23:54:06.747Z,21.48
2018-09-15T23:56:36.107Z,21.48
2018-09-15T23:59:05.888Z,21.46
